createdAt,value
2018-12-27T00:00:54.912Z,-3.20
2018-12-27T00:03:22.504Z,-3.30
2018-12-27T00:05:50.161Z,-3.20
2018-12-27T00:08:17.748Z,-3.20
2018-12-27T00:10:45.367Z,-3.10
2018-12-27T00:13:12.967Z,-3.10
2018-12-27T00:15:40.525Z,-3.00
2018-12-27T00:18:09.106Z,-2.90
2018-12-27T00:20:36.700Z,-2.80
2018-12-27T00:23:04.263Z,-2.70
2018-12-27T00:25:32.620Z,-2.60
2018-12-27T00:28:00.168Z,-2.60
2018-12-27T00:30:27.724Z,-2.50
2018-12-27T00:33:02.927Z,-2.40
2018-12-27T00:35:22.974Z,-2.40
2018-12-27T00:37:51.550Z,-2.40
2018-12-27T00:40:19.117Z,-2.50
2018-12-27T00:42:46.770Z,-2.40
2018-12-27T00:45:14.397Z,-2.40
2018-12-27T00:47:41.973Z,-2.40
2018-12-27T00:50:09.569Z,-2.40
2018-12-27T00:52:37.118Z,-2.40
2018-12-27T00:55:04.702Z,-2.40
2018-12-27T00:57:32.261Z,-2.40
2018-12-27T00:59:59.856Z,-2.40
2018-12-27T01:02:27.432Z,-2.40
2018-12-27T01:04:54.994Z,-2.50
2018-12-27T01:07:23.347Z,-2.50
2018-12-27T01:09:50.918Z,-2.60
2018-12-27T01:12:18.508Z,-2.60
2018-12-27T01:14:46.093Z,-2.60
2018-12-27T01:17:14.150Z,-2.60
2018-12-27T01:19:41.768Z,-2.60
2018-12-27T01:22:09.348Z,-2.70
2018-12-27T01:24:36.946Z,-2.80
2018-12-27T01:27:06.315Z,-2.80
2018-12-27T01:29:33.887Z,-2.80
2018-12-27T01:32:01.465Z,-2.70
2018-12-27T01:34:29.023Z,-2.80
2018-12-27T01:36:56.596Z,-2.80
2018-12-27T01:39:24.156Z,-2.80
2018-12-27T01:41:51.761Z,-2.90
2018-12-27T01:44:19.325Z,-2.90
2018-12-27T01:46:47.900Z,-3.00
2018-12-27T01:49:15.500Z,-3.00
2018-12-27T01:51:43.058Z,-3.00
2018-12-27T01:54:10.649Z,-2.90
2018-12-27T01:56:38.239Z,-2.90
2018-12-27T01:59:05.793Z,-2.90
2018-12-27T02:01:33.369Z,-2.90
2018-12-27T02:04:01.972Z,-2.90
2018-12-27T02:06:29.538Z,-3.00
2018-12-27T02:08:57.120Z,-3.00
2018-12-27T02:11:25.477Z,-3.00
2018-12-27T02:13:53.841Z,-3.00
2018-12-27T02:16:21.392Z,-3.00
2018-12-27T02:18:49.938Z,-3.00
2018-12-27T02:21:17.489Z,-3.00
2018-12-27T02:23:45.085Z,-3.00
2018-12-27T02:26:12.654Z,-3.10
2018-12-27T02:28:40.266Z,-3.20
2018-12-27T02:31:07.822Z,-3.10
2018-12-27T02:33:35.836Z,-3.20
2018-12-27T02:36:03.013Z,-3.20
2018-12-27T02:38:30.602Z,-3.20
2018-12-27T02:40:59.006Z,-3.20
2018-12-27T02:43:26.605Z,-3.20
2018-12-27T02:45:54.164Z,-3.20
2018-12-27T02:48:21.762Z,-3.30
2018-12-27T02:50:49.346Z,-3.20
2018-12-27T02:53:16.917Z,-3.20
2018-12-27T02:55:44.497Z,-3.20
2018-12-27T02:58:12.084Z,-3.10
2018-12-27T03:00:39.647Z,-3.20
2018-12-27T03:03:07.246Z,-3.20
2018-12-27T03:05:35.804Z,-3.20
2018-12-27T03:08:03.398Z,-3.10
2018-12-27T03:10:31.741Z,-3.00
2018-12-27T03:12:59.330Z,-3.10
2018-12-27T03:15:26.933Z,-3.20
2018-12-27T03:17:54.513Z,-3.40
2018-12-27T03:20:22.109Z,-3.40
2018-12-27T03:22:50.589Z,-3.60
2018-12-27T03:25:18.949Z,-3.60
2018-12-27T03:27:46.514Z,-3.70
2018-12-27T03:30:14.119Z,-3.70
2018-12-27T03:32:41.686Z,-3.70
2018-12-27T03:35:09.264Z,-3.50
2018-12-27T03:37:36.852Z,-3.60
2018-12-27T03:40:05.174Z,-4.00
2018-12-27T03:42:32.758Z,-4.00
2018-12-27T03:45:00.350Z,-3.90
2018-12-27T03:47:27.905Z,-3.90
2018-12-27T03:49:56.241Z,-4.10
2018-12-27T03:52:23.842Z,-4.10
2018-12-27T03:54:51.392Z,-4.20
2018-12-27T03:57:18.978Z,-4.10
2018-12-27T03:59:46.551Z,-4.20
2018-12-27T04:02:14.157Z,-4.30
2018-12-27T04:04:42.485Z,-4.10
2018-12-27T04:07:10.072Z,-4.10
2018-12-27T04:09:37.641Z,-4.00
2018-12-27T04:12:05.192Z,-3.70
2018-12-27T04:14:32.789Z,-3.60
2018-12-27T04:17:00.419Z,-3.50
2018-12-27T04:19:28.001Z,-3.40
2018-12-27T04:21:55.562Z,-3.30
2018-12-27T04:24:23.163Z,-3.20
2018-12-27T04:26:50.712Z,-3.20
2018-12-27T04:29:18.314Z,-3.30
2018-12-27T04:31:45.871Z,-3.30
2018-12-27T04:34:13.462Z,-3.30
2018-12-27T04:36:41.020Z,-3.30
2018-12-27T04:39:08.622Z,-3.30
2018-12-27T04:41:36.190Z,-3.30
2018-12-27T04:46:37.714Z,-3.40
2018-12-27T04:49:05.307Z,-3.50
2018-12-27T04:51:32.865Z,-3.50
2018-12-27T04:54:00.428Z,-3.50
2018-12-27T04:56:28.020Z,-3.50
2018-12-27T04:58:55.583Z,-3.50
2018-12-27T05:01:23.164Z,-3.40
2018-12-27T05:03:50.732Z,-3.50
2018-12-27T05:06:18.285Z,-3.60
2018-12-27T05:08:45.917Z,-3.60
2018-12-27T05:11:13.499Z,-3.60
2018-12-27T05:13:41.087Z,-3.60
2018-12-27T05:16:08.658Z,-3.60
2018-12-27T05:18:36.251Z,-3.60
2018-12-27T05:21:03.826Z,-3.50
2018-12-27T05:23:31.488Z,-3.50
2018-12-27T05:25:59.085Z,-3.30
2018-12-27T05:28:26.648Z,-3.20
2018-12-27T05:30:54.236Z,-3.30
2018-12-27T05:33:21.797Z,-3.50
2018-12-27T05:35:49.383Z,-3.60
2018-12-27T05:38:16.996Z,-3.70
2018-12-27T05:40:44.564Z,-3.70
2018-12-27T05:43:12.151Z,-3.70
2018-12-27T05:45:39.732Z,-3.90
2018-12-27T05:48:07.321Z,-3.80
2018-12-27T05:50:34.869Z,-3.90
2018-12-27T05:53:03.445Z,-3.90
2018-12-27T05:55:34.440Z,-3.80
2018-12-27T05:57:58.647Z,-3.90
2018-12-27T06:00:26.210Z,-3.90
2018-12-27T06:02:53.861Z,-3.90
2018-12-27T06:05:21.423Z,-3.90
2018-12-27T06:07:49.012Z,-3.90
2018-12-27T06:10:16.604Z,-3.70
2018-12-27T06:12:44.196Z,-3.60
2018-12-27T06:15:12.688Z,-3.60
2018-12-27T06:17:40.268Z,-3.60
2018-12-27T06:20:07.864Z,-3.60
2018-12-27T06:22:35.436Z,-3.50
2018-12-27T06:25:03.026Z,-3.50
2018-12-27T06:27:30.596Z,-3.40
2018-12-27T06:29:58.953Z,-3.30
2018-12-27T06:32:26.505Z,-3.30
2018-12-27T06:34:54.090Z,-3.30
2018-12-27T06:37:21.654Z,-3.40
2018-12-27T06:39:50.009Z,-3.50
2018-12-27T06:42:17.567Z,-3.50
2018-12-27T06:44:46.140Z,-3.50
2018-12-27T06:47:13.721Z,-3.60
2018-12-27T06:49:41.285Z,-3.60
2018-12-27T06:52:08.945Z,-3.60
2018-12-27T06:54:36.471Z,-3.60
2018-12-27T06:57:04.098Z,-3.50
2018-12-27T06:59:31.746Z,-3.50
2018-12-27T07:01:59.335Z,-3.70
2018-12-27T07:04:26.900Z,-3.60
2018-12-27T07:06:54.482Z,-3.70
2018-12-27T07:09:22.812Z,-3.60
2018-12-27T07:11:50.392Z,-3.60
2018-12-27T07:14:17.995Z,-3.50
2018-12-27T07:16:45.552Z,-3.50
2018-12-27T07:19:14.125Z,-3.50
2018-12-27T07:21:41.684Z,-3.50
2018-12-27T07:24:09.277Z,-3.50
2018-12-27T07:26:36.838Z,-3.40
2018-12-27T07:29:04.428Z,-3.40
2018-12-27T07:31:31.998Z,-3.40
2018-12-27T07:33:59.585Z,-3.20
2018-12-27T07:36:27.148Z,-3.30
2018-12-27T07:38:54.700Z,-3.30
2018-12-27T07:41:22.286Z,-3.20
2018-12-27T07:43:49.845Z,-3.30
2018-12-27T07:46:17.439Z,-3.20
2018-12-27T07:48:45.033Z,-3.30
2018-12-27T07:51:12.592Z,-3.30
2018-12-27T07:53:41.181Z,-3.20
2018-12-27T07:56:08.751Z,-3.20
2018-12-27T07:58:36.310Z,-3.20
2018-12-27T08:01:03.887Z,-3.20
2018-12-27T08:03:31.446Z,-3.20
2018-12-27T08:05:59.038Z,-3.10
2018-12-27T08:08:26.617Z,-3.20
2018-12-27T08:10:54.207Z,-3.20
2018-12-27T08:13:21.767Z,-3.20
2018-12-27T08:15:49.353Z,-3.30
2018-12-27T08:18:16.937Z,-3.20
2018-12-27T08:20:44.529Z,-3.20
2018-12-27T08:23:12.133Z,-3.20
2018-12-27T08:25:39.699Z,-3.10
2018-12-27T08:28:07.299Z,-3.00
2018-12-27T08:30:34.861Z,-2.90
2018-12-27T08:33:03.412Z,-2.80
2018-12-27T08:35:31.000Z,-2.70
2018-12-27T08:37:58.565Z,-2.90
2018-12-27T08:40:26.158Z,-2.70
2018-12-27T08:42:53.725Z,-2.80
2018-12-27T08:45:21.329Z,-2.90
2018-12-27T08:47:48.914Z,-2.70
2018-12-27T08:50:16.485Z,-2.60
2018-12-27T08:52:44.070Z,-2.60
2018-12-27T08:55:12.559Z,-2.40
2018-12-27T08:57:40.127Z,-2.50
2018-12-27T09:00:07.721Z,-2.60
2018-12-27T09:02:35.295Z,-2.30
2018-12-27T09:05:02.909Z,-2.20
2018-12-27T09:07:30.484Z,-2.00
2018-12-27T09:09:58.044Z,-2.10
2018-12-27T09:12:25.625Z,-2.10
2018-12-27T09:14:53.173Z,-1.80
2018-12-27T09:17:20.752Z,-1.50
2018-12-27T09:19:49.338Z,-1.60
2018-12-27T09:22:17.674Z,-1.40
2018-12-27T09:24:45.259Z,-1.40
2018-12-27T09:27:12.809Z,-1.30
2018-12-27T09:29:40.364Z,-1.20
2018-12-27T09:32:07.949Z,-1.30
2018-12-27T09:34:35.500Z,-1.30
2018-12-27T09:37:04.092Z,-1.10
2018-12-27T09:39:31.687Z,-1.00
2018-12-27T09:41:59.270Z,-1.20
2018-12-27T09:44:27.874Z,-1.00
2018-12-27T09:46:55.441Z,-1.00
2018-12-27T09:49:22.992Z,-0.90
2018-12-27T09:51:50.577Z,-0.70
2018-12-27T09:54:18.149Z,-0.80
2018-12-27T09:56:45.734Z,-0.50
2018-12-27T09:59:13.318Z,-0.40
2018-12-27T10:01:40.881Z,-0.60
2018-12-27T10:04:08.472Z,-0.40
2018-12-27T10:06:36.021Z,-0.70
2018-12-27T10:09:03.572Z,-0.60
2018-12-27T10:11:31.150Z,-0.30
2018-12-27T10:13:58.695Z,-0.30
2018-12-27T10:16:26.273Z,-0.20
2018-12-27T10:18:53.830Z,-0.20
2018-12-27T10:21:21.411Z,-0.20
2018-12-27T10:23:48.993Z,-0.20
2018-12-27T10:26:16.582Z,-0.10
2018-12-27T10:28:44.133Z,-0.10
2018-12-27T10:31:11.708Z,0.20
2018-12-27T10:33:39.265Z,0.30
2018-12-27T10:36:06.839Z,0.40
2018-12-27T10:38:34.391Z,0.30
2018-12-27T10:41:01.970Z,0.50
2018-12-27T10:43:29.550Z,0.60
2018-12-27T10:45:57.096Z,0.80
2018-12-27T10:48:24.668Z,0.80
2018-12-27T10:50:52.249Z,0.80
2018-12-27T10:53:20.579Z,1.10
2018-12-27T10:55:48.153Z,1.10
2018-12-27T10:58:15.705Z,1.10
2018-12-27T11:00:43.332Z,1.20
2018-12-27T11:03:10.886Z,1.30
2018-12-27T11:05:38.442Z,1.30
2018-12-27T11:08:06.027Z,1.40
2018-12-27T11:10:33.578Z,1.50
2018-12-27T11:13:02.154Z,1.60
2018-12-27T11:15:29.714Z,1.70
2018-12-27T11:17:57.269Z,1.70
2018-12-27T11:20:24.871Z,1.70
2018-12-27T11:22:52.438Z,1.70
2018-12-27T11:25:19.992Z,1.90
2018-12-27T11:27:48.340Z,2.10
2018-12-27T11:30:15.912Z,2.10
2018-12-27T11:32:43.491Z,2.30
2018-12-27T11:35:11.064Z,2.40
2018-12-27T11:37:38.612Z,2.50
2018-12-27T11:40:06.198Z,2.60
2018-12-27T11:42:33.747Z,2.70
2018-12-27T11:45:02.308Z,2.80
2018-12-27T11:47:29.871Z,2.50
2018-12-27T11:49:57.453Z,2.30
2018-12-27T11:52:25.002Z,2.90
2018-12-27T11:54:52.579Z,3.10
2018-12-27T11:57:20.157Z,3.40
2018-12-27T11:59:48.481Z,3.00
2018-12-27T12:02:16.060Z,3.00
2018-12-27T12:04:43.604Z,2.80
2018-12-27T12:07:11.265Z,3.10
2018-12-27T12:09:38.840Z,3.40
2018-12-27T12:12:06.423Z,3.40
2018-12-27T12:14:34.769Z,3.70
2018-12-27T12:17:02.321Z,3.70
2018-12-27T12:19:29.878Z,3.50
2018-12-27T12:21:57.456Z,3.40
2018-12-27T12:24:25.003Z,3.60
2018-12-27T12:26:52.588Z,3.60
2018-12-27T12:29:20.140Z,3.20
2018-12-27T12:31:47.724Z,3.20
2018-12-27T12:34:16.042Z,2.90
2018-12-27T12:36:43.593Z,2.90
2018-12-27T12:39:11.181Z,2.80
2018-12-27T12:41:38.818Z,2.90
2018-12-27T12:44:06.394Z,2.90
2018-12-27T12:46:34.044Z,2.60
2018-12-27T12:49:01.626Z,2.40
2018-12-27T12:51:29.176Z,2.50
2018-12-27T12:53:56.771Z,2.40
2018-12-27T12:56:24.337Z,2.70
2018-12-27T12:58:51.884Z,2.70
2018-12-27T13:01:21.564Z,2.60
2018-12-27T13:03:49.160Z,2.60
2018-12-27T13:06:18.088Z,2.80
2018-12-27T13:08:44.522Z,2.50
2018-12-27T13:11:12.100Z,2.50
2018-12-27T13:13:39.649Z,2.50
2018-12-27T13:16:07.228Z,2.30
2018-12-27T13:18:34.788Z,2.30
2018-12-27T13:21:02.371Z,2.30
2018-12-27T13:23:29.946Z,2.30
2018-12-27T13:25:57.501Z,2.30
2018-12-27T13:28:25.096Z,2.20
2018-12-27T13:30:52.679Z,2.30
2018-12-27T13:33:20.244Z,2.30
2018-12-27T13:35:48.593Z,2.50
2018-12-27T13:38:16.148Z,2.50
2018-12-27T13:40:43.727Z,2.40
2018-12-27T13:43:11.334Z,2.30
2018-12-27T13:45:38.888Z,2.40
2018-12-27T13:48:06.552Z,2.80
2018-12-27T13:50:34.125Z,2.80
2018-12-27T13:53:01.704Z,2.90
2018-12-27T13:55:29.257Z,2.70
2018-12-27T13:57:56.833Z,2.40
2018-12-27T14:00:24.390Z,2.30
2018-12-27T14:02:52.749Z,2.40
2018-12-27T14:05:20.305Z,2.40
2018-12-27T14:07:47.888Z,2.50
2018-12-27T14:10:15.443Z,2.50
2018-12-27T14:12:44.774Z,2.30
2018-12-27T14:15:12.353Z,2.30
2018-12-27T14:17:39.898Z,2.50
2018-12-27T14:20:07.485Z,2.40
2018-12-27T14:22:35.071Z,2.30
2018-12-27T14:25:03.401Z,2.20
2018-12-27T14:27:30.980Z,2.20
2018-12-27T14:29:58.540Z,2.10
2018-12-27T14:32:26.117Z,1.90
2018-12-27T14:34:53.673Z,1.80
2018-12-27T14:37:21.225Z,1.70
2018-12-27T14:39:48.821Z,1.80
2018-12-27T14:42:16.972Z,1.70
2018-12-27T14:44:45.314Z,1.60
2018-12-27T14:47:13.068Z,1.60
2018-12-27T14:49:40.656Z,1.60
2018-12-27T14:52:08.233Z,1.60
2018-12-27T14:54:35.814Z,1.50
2018-12-27T14:57:03.367Z,1.60
2018-12-27T14:59:30.909Z,1.50
2018-12-27T15:01:58.480Z,1.40
2018-12-27T15:04:26.036Z,1.40
2018-12-27T15:06:53.657Z,1.40
2018-12-27T15:09:22.009Z,1.30
2018-12-27T15:11:49.573Z,1.30
2018-12-27T15:14:17.149Z,1.40
2018-12-27T15:16:45.071Z,1.60
2018-12-27T15:19:12.342Z,1.60
2018-12-27T15:21:39.893Z,1.60
2018-12-27T15:24:07.491Z,1.70
2018-12-27T15:26:35.801Z,1.40
2018-12-27T15:29:03.349Z,1.40
2018-12-27T15:31:31.919Z,1.50
2018-12-27T15:33:59.478Z,1.50
2018-12-27T15:36:27.073Z,1.60
2018-12-27T15:38:54.633Z,1.60
2018-12-27T15:41:22.222Z,1.60
2018-12-27T15:43:49.801Z,1.50
2018-12-27T15:46:18.144Z,1.30
2018-12-27T15:48:45.690Z,1.30
2018-12-27T15:51:14.244Z,1.30
2018-12-27T15:53:41.829Z,1.30
2018-12-27T15:56:09.389Z,1.30
2018-12-27T15:58:36.993Z,1.20
2018-12-27T16:01:04.581Z,1.20
2018-12-27T16:03:32.146Z,1.10
2018-12-27T16:05:59.741Z,1.10
2018-12-27T16:08:27.328Z,1.20
2018-12-27T16:10:55.890Z,1.10
2018-12-27T16:13:23.449Z,1.20
2018-12-27T16:15:51.040Z,1.10
2018-12-27T16:18:18.589Z,1.10
2018-12-27T16:20:46.169Z,1.10
2018-12-27T16:23:13.749Z,1.00
2018-12-27T16:25:41.297Z,1.00
2018-12-27T16:28:08.893Z,1.00
2018-12-27T16:30:37.325Z,1.00
2018-12-27T16:33:04.893Z,1.00
2018-12-27T16:35:32.485Z,0.90
2018-12-27T16:38:00.802Z,0.90
2018-12-27T16:40:28.369Z,0.90
2018-12-27T16:42:55.960Z,0.90
2018-12-27T16:45:23.544Z,0.80
2018-12-27T16:47:51.892Z,0.80
2018-12-27T16:50:19.466Z,0.80
2018-12-27T16:52:47.045Z,0.70
2018-12-27T16:55:14.596Z,0.70
2018-12-27T16:57:42.937Z,0.60
2018-12-27T17:00:10.480Z,0.60
2018-12-27T17:02:38.062Z,0.60
2018-12-27T17:05:05.640Z,0.60
2018-12-27T17:07:33.958Z,0.60
2018-12-27T17:10:02.506Z,0.60
2018-12-27T17:12:30.091Z,0.60
2018-12-27T17:14:57.638Z,0.60
2018-12-27T17:17:25.242Z,0.50
2018-12-27T17:19:52.806Z,0.50
2018-12-27T17:22:21.162Z,0.40
2018-12-27T17:24:48.716Z,0.40
2018-12-27T17:27:16.297Z,0.40
2018-12-27T17:29:43.873Z,0.40
2018-12-27T17:32:12.203Z,0.50
2018-12-27T17:34:39.801Z,0.50
2018-12-27T17:37:07.402Z,0.40
2018-12-27T17:39:35.973Z,0.30
2018-12-27T17:42:03.531Z,0.20
2018-12-27T17:44:31.117Z,0.20
2018-12-27T17:46:58.677Z,0.20
2018-12-27T17:49:27.008Z,0.00
2018-12-27T17:51:55.617Z,0.00
2018-12-27T17:54:23.196Z,0.00
2018-12-27T17:56:50.783Z,0.00
2018-12-27T17:59:19.124Z,0.00
2018-12-27T18:01:46.677Z,0.00
2018-12-27T18:04:14.253Z,0.00
2018-12-27T18:06:41.804Z,0.00
2018-12-27T18:09:09.387Z,0.00
2018-12-27T18:11:36.945Z,0.00
2018-12-27T18:14:04.528Z,0.00
2018-12-27T18:16:32.106Z,-0.10
2018-12-27T18:18:59.659Z,-0.10
2018-12-27T18:21:27.242Z,-0.10
2018-12-27T18:23:54.802Z,-0.10
2018-12-27T18:26:22.381Z,0.00
2018-12-27T18:28:49.937Z,-0.10
2018-12-27T18:31:17.525Z,-0.10
2018-12-27T18:33:45.121Z,-0.10
2018-12-27T18:36:12.702Z,-0.20
2018-12-27T18:38:40.256Z,-0.20
2018-12-27T18:41:07.836Z,-0.20
2018-12-27T18:43:35.548Z,-0.20
2018-12-27T18:46:03.133Z,-0.10
2018-12-27T18:48:30.688Z,-0.20
2018-12-27T18:50:58.261Z,-0.20
2018-12-27T18:53:25.813Z,-0.20
2018-12-27T18:55:53.676Z,-0.30
2018-12-27T18:58:21.262Z,-0.40
2018-12-27T19:00:49.011Z,-0.40
2018-12-27T19:03:16.596Z,-0.40
2018-12-27T19:05:44.145Z,-0.40
2018-12-27T19:08:12.488Z,-0.30
2018-12-27T19:10:40.089Z,-0.30
2018-12-27T19:13:07.665Z,-0.20
2018-12-27T19:15:37.085Z,-0.30
2018-12-27T19:18:04.678Z,-0.30
2018-12-27T19:20:32.236Z,-0.30
2018-12-27T19:22:59.813Z,-0.20
2018-12-27T19:25:27.373Z,-0.20
2018-12-27T19:27:54.943Z,-0.30
2018-12-27T19:30:22.546Z,-0.30
2018-12-27T19:32:50.096Z,-0.20
2018-12-27T19:35:17.653Z,-0.30
2018-12-27T19:37:52.134Z,-0.30
2018-12-27T19:40:13.927Z,-0.30
2018-12-27T19:42:41.478Z,-0.30
2018-12-27T19:45:09.065Z,-0.30
2018-12-27T19:47:36.641Z,-0.20
2018-12-27T19:50:05.215Z,-0.20
2018-12-27T19:52:32.781Z,-0.20
2018-12-27T19:55:00.362Z,-0.30
2018-12-27T19:57:27.915Z,-0.30
2018-12-27T19:59:55.492Z,-0.40
2018-12-27T20:02:23.052Z,-0.40
2018-12-27T20:04:50.645Z,-0.30
2018-12-27T20:07:18.201Z,-0.30
2018-12-27T20:09:45.761Z,-0.30
2018-12-27T20:12:14.337Z,-0.40
2018-12-27T20:14:42.656Z,-0.40
2018-12-27T20:17:10.236Z,-0.40
2018-12-27T20:19:41.019Z,-0.40
2018-12-27T20:22:13.936Z,-0.40
2018-12-27T20:24:44.195Z,-0.30
2018-12-27T20:27:12.545Z,-0.30
2018-12-27T20:29:40.651Z,-0.30
2018-12-27T20:32:08.970Z,-0.30
2018-12-27T20:34:38.576Z,-0.30
2018-12-27T20:37:06.165Z,-0.30
2018-12-27T20:39:45.137Z,-0.30
2018-12-27T20:42:21.549Z,-0.30
2018-12-27T20:44:58.213Z,-0.30
2018-12-27T20:47:30.229Z,-0.30
2018-12-27T20:49:58.044Z,-0.20
2018-12-27T20:52:25.633Z,-0.20
2018-12-27T20:54:53.273Z,-0.20
2018-12-27T20:57:20.888Z,-0.10
2018-12-27T20:59:52.058Z,-0.20
2018-12-27T21:02:19.636Z,-0.10
2018-12-27T21:04:47.984Z,-0.20
2018-12-27T21:07:15.564Z,-0.30
2018-12-27T21:09:43.160Z,-0.20
2018-12-27T21:12:10.929Z,-0.20
2018-12-27T21:14:38.516Z,-0.20
2018-12-27T21:17:06.101Z,-0.20
2018-12-27T21:19:33.677Z,-0.30
2018-12-27T21:22:02.006Z,-0.30
2018-12-27T21:24:29.566Z,-0.30
2018-12-27T21:26:57.160Z,-0.40
2018-12-27T21:29:24.741Z,-0.40
2018-12-27T21:31:52.321Z,-0.50
2018-12-27T21:34:19.901Z,-0.40
2018-12-27T21:36:47.459Z,-0.40
2018-12-27T21:39:15.038Z,-0.50
2018-12-27T21:41:42.593Z,-0.40
2018-12-27T21:44:11.334Z,-0.50
2018-12-27T21:46:38.889Z,-0.50
2018-12-27T21:49:06.470Z,-0.50
2018-12-27T21:51:35.024Z,-0.50
2018-12-27T21:54:02.582Z,-0.30
2018-12-27T21:56:30.174Z,-0.40
2018-12-27T21:58:57.723Z,-0.40
2018-12-27T22:01:25.312Z,-0.50
2018-12-27T22:03:53.624Z,-0.60
2018-12-27T22:06:21.169Z,-0.60
2018-12-27T22:08:48.744Z,-0.50
2018-12-27T22:11:16.350Z,-0.50
2018-12-27T22:13:43.933Z,-0.40
2018-12-27T22:16:11.509Z,-0.30
2018-12-27T22:18:40.103Z,-0.40
2018-12-27T22:21:07.681Z,-0.40
2018-12-27T22:23:35.256Z,-0.40
2018-12-27T22:26:03.605Z,-0.40
2018-12-27T22:28:38.047Z,-0.40
2018-12-27T22:31:22.593Z,-0.40
2018-12-27T22:33:57.564Z,-0.30
2018-12-27T22:36:25.212Z,-0.30
2018-12-27T22:38:52.764Z,-0.20
2018-12-27T22:41:21.085Z,-0.20
2018-12-27T22:43:48.664Z,-0.20
2018-12-27T22:46:16.228Z,-0.40
2018-12-27T22:48:43.811Z,-0.40
2018-12-27T22:51:12.125Z,-0.10
2018-12-27T22:53:39.710Z,-0.10
2018-12-27T22:56:08.267Z,-0.10
2018-12-27T22:58:35.850Z,-0.10
2018-12-27T23:01:03.395Z,0.00
2018-12-27T23:03:30.937Z,0.00
2018-12-27T23:05:58.513Z,0.00
2018-12-27T23:08:26.069Z,-0.10
2018-12-27T23:10:53.648Z,0.00
2018-12-27T23:13:21.201Z,-0.20
2018-12-27T23:15:48.804Z,-0.20
2018-12-27T23:18:16.374Z,-0.10
2018-12-27T23:20:43.957Z,-0.20
2018-12-27T23:23:11.721Z,-0.10
2018-12-27T23:25:39.276Z,0.10
2018-12-27T23:28:06.857Z,0.00
2018-12-27T23:30:34.479Z,0.00
2018-12-27T23:33:02.058Z,0.00
2018-12-27T23:35:29.615Z,0.00
2018-12-27T23:37:57.170Z,-0.30
2018-12-27T23:40:26.109Z,-0.40
2018-12-27T23:42:54.340Z,-0.10
2018-12-27T23:45:22.168Z,-0.10
2018-12-27T23:47:50.132Z,0.00
2018-12-27T23:50:17.905Z,-0.10
2018-12-27T23:52:45.576Z,0.20
2018-12-27T23:55:13.243Z,0.20
2018-12-27T23:57:40.860Z,0.20
